Time;durP1;ratioP1;P1;durP2;ratioP2;P2;SDS_P1;SDS_P2;PMS_P1;PMS_P2;Temp;Humidity;BMP_temperature;BMP_pressure;BME280_temperature;BME280_humidity;BME280_pressure;Samples;Min_cycle;Max_cycle;Signal;HPM_P1;HPM_P2
2021/05/08 00:01:37;;;;;;;0.88;0.03;;;9.90;99.90;;;9.10;73.44;100710.47;5026825;28;20131;-47
2021/05/08 00:04:05;;;;;;;0.17;0.00;;;9.70;99.90;;;9.54;71.08;100714.47;5027851;28;20044;-48
2021/05/08 00:06:34;;;;;;;0.10;0.00;;;10.00;99.90;;;10.04;68.16;100716.22;5025806;28;20239;-49
2021/05/08 00:09:05;;;;;;;0.13;0.00;;;10.40;99.90;;;10.01;67.38;100712.13;5027010;28;20033;-47
2021/05/08 00:11:31;;;;;;;0.13;0.00;;;10.50;99.90;;;10.14;66.67;100717.91;5027792;28;20493;-47
2021/05/08 00:14:03;;;;;;;0.20;0.00;;;10.60;99.90;;;9.82;68.56;100723.34;5026745;28;20044;-48
2021/05/08 00:16:30;;;;;;;1.20;0.10;;;10.50;99.90;;;9.83;68.08;100727.59;5026371;28;20817;-48
2021/05/08 00:18:56;;;;;;;0.10;0.00;;;10.40;99.90;;;10.22;65.49;100712.88;5027593;28;20021;-47
2021/05/08 00:21:22;;;;;;;1.63;0.00;;;10.60;99.90;;;10.38;64.91;100721.94;5026258;28;20156;-46
2021/05/08 00:23:48;;;;;;;0.55;0.28;;;10.90;99.90;;;10.27;65.16;100723.72;5026067;28;20572;-48
2021/05/08 00:26:14;;;;;;;0.08;0.00;;;10.80;99.90;;;10.39;64.60;100721.78;5009955;28;20033;-50
2021/05/08 00:28:40;;;;;;;0.17;0.00;;;10.90;99.90;;;10.36;64.32;100726.44;5024340;28;20037;-51
2021/05/08 00:31:06;;;;;;;0.15;0.00;;;10.90;99.90;;;10.36;64.28;100727.28;5027595;28;20033;-52
2021/05/08 00:33:32;;;;;;;0.10;0.00;;;10.90;99.90;;;10.64;62.38;100721.22;5026088;28;20045;-52
2021/05/08 00:35:58;;;;;;;0.10;0.00;;;11.00;99.90;;;10.66;61.66;100734.09;5025695;28;20049;-47
2021/05/08 00:38:24;;;;;;;0.00;0.00;;;11.10;99.80;;;10.83;61.21;100722.16;5025292;28;20046;-50
2021/05/08 00:40:50;;;;;;;0.20;0.00;;;11.20;99.40;;;10.97;60.69;100712.09;5027659;28;20045;-49
2021/05/08 00:43:17;;;;;;;0.00;0.00;;;11.40;98.40;;;10.89;60.34;100730.22;5027595;28;20022;-48
2021/05/08 00:45:43;;;;;;;0.10;0.00;;;11.40;97.60;;;11.06;58.54;100717.44;5026590;28;20037;-47
2021/05/08 00:48:14;;;;;;;0.00;0.00;;;11.50;96.20;;;11.24;57.90;100724.38;5026469;28;20280;-48
2021/05/08 00:50:41;;;;;;;0.10;0.00;;;11.70;95.50;;;11.06;59.65;100726.09;5026267;28;20137;-52
2021/05/08 00:53:09;;;;;;;0.17;0.00;;;11.70;96.10;;;10.83;60.68;100736.03;5027316;28;20430;-53
2021/05/08 00:55:39;;;;;;;0.05;0.00;;;11.50;96.80;;;10.68;61.35;100737.41;5024340;28;20048;-54
2021/05/08 00:58:06;;;;;;;0.00;0.00;;;11.30;97.70;;;10.52;62.28;100731.91;5025684;28;20551;-52
2021/05/08 01:00:33;;;;;;;0.25;0.00;;;11.20;98.40;;;10.36;63.07;100744.69;5027228;28;20038;-53
2021/05/08 01:02:59;;;;;;;0.20;0.00;;;11.00;99.10;;;10.34;63.33;100757.03;5025984;28;20052;-52
2021/05/08 01:05:27;;;;;;;0.00;0.00;;;10.90;99.60;;;10.27;63.35;100760.16;5029479;28;20038;-52
2021/05/08 01:07:54;;;;;;;0.10;0.00;;;10.80;99.90;;;10.42;62.00;100746.72;5029854;28;20045;-54
2021/05/08 01:10:20;;;;;;;0.82;0.00;;;10.90;98.70;;;10.36;62.20;100748.13;5029823;28;20046;-54
2021/05/08 01:12:46;;;;;;;0.00;0.00;;;10.90;99.10;;;10.35;62.13;100750.84;5029902;28;20418;-51
2021/05/08 01:15:14;;;;;;;0.73;0.10;;;10.90;98.70;;;10.51;60.57;100748.50;5030989;28;20030;-51
2021/05/08 01:17:43;;;;;;;0.20;0.00;;;10.90;97.70;;;10.70;59.54;100758.13;5029780;28;20045;-53
2021/05/08 01:20:13;;;;;;;0.52;0.10;;;11.20;96.80;;;10.72;59.47;100762.22;5030812;28;20049;-47
2021/05/08 01:22:40;;;;;;;1.95;0.00;;;11.20;96.10;;;10.20;62.97;100772.06;5029751;28;20061;-51
2021/05/08 01:25:30;;;;;;;0.20;0.00;;;11.00;98.60;;;10.08;62.53;100775.72;5029468;28;20493;-51
2021/05/08 01:28:01;;;;;;;0.10;0.00;;;10.70;99.20;;;10.00;63.74;100775.56;5029790;28;20029;-54
2021/05/08 01:30:31;;;;;;;0.40;0.10;;;10.70;99.80;;;9.84;64.90;100786.47;5031069;28;20029;-50
2021/05/08 01:32:58;;;;;;;0.03;0.00;;;10.50;99.90;;;9.78;64.60;100788.78;5029882;28;20081;-51
2021/05/08 01:35:27;;;;;;;3.08;0.00;;;10.30;99.90;;;10.06;62.19;100787.22;5030864;28;20034;-54
2021/05/08 01:37:53;;;;;;;0.03;0.00;;;10.50;99.10;;;10.02;62.42;100788.44;5020770;28;20110;-55
2021/05/08 01:40:30;;;;;;;0.00;0.00;;;10.60;99.20;;;9.58;65.65;100790.47;5020835;28;20044;-52
2021/05/08 01:42:56;;;;;;;0.32;0.00;;;10.30;99.90;;;9.37;66.48;100789.69;5030867;28;20033;-52
2021/05/08 01:45:30;;;;;;;0.43;0.00;;;10.10;99.90;;;9.24;67.01;100798.53;5029071;28;20059;-53
2021/05/08 01:47:58;;;;;;;0.25;0.00;;;10.00;99.90;;;9.32;66.52;100800.47;5029020;28;20037;-53
2021/05/08 01:50:27;;;;;;;0.22;0.00;;;9.90;99.90;;;9.16;67.60;100802.69;5030697;28;20088;-54
2021/05/08 01:52:54;;;;;;;0.90;0.00;;;9.90;99.90;;;9.06;67.87;100805.22;5028152;28;20037;-54
2021/05/08 01:55:24;;;;;;;0.20;0.00;;;9.70;99.90;;;8.85;69.14;100815.63;5029028;28;20499;-54
2021/05/08 01:57:56;;;;;;;0.00;0.00;;;9.60;99.90;;;8.89;68.15;100813.59;5029467;28;20038;-53
2021/05/08 02:00:32;;;;;;;3.25;0.00;;;9.50;99.90;;;8.84;69.08;100811.38;5012223;28;20088;-52
2021/05/08 02:02:58;;;;;;;0.52;0.00;;;9.50;99.90;;;8.75;69.64;100814.72;5029011;28;20381;-51
2021/05/08 02:05:29;;;;;;;0.10;0.00;;;9.40;99.90;;;8.66;70.28;100812.88;5029819;28;20045;-51
2021/05/08 02:07:55;;;;;;;0.10;0.00;;;9.30;99.90;;;8.70;69.74;100809.06;5028173;28;20064;-53
2021/05/08 02:10:22;;;;;;;0.10;0.00;;;9.30;99.90;;;8.69;69.49;100820.41;5028096;28;20041;-47
2021/05/08 02:12:51;;;;;;;1.27;0.00;;;9.30;99.90;;;8.56;70.56;100822.34;5029906;28;20468;-50
2021/05/08 02:15:19;;;;;;;0.20;0.00;;;9.20;99.90;;;8.47;70.39;100826.53;5028403;28;20394;-49
2021/05/08 02:17:45;;;;;;;0.63;0.00;;;9.10;99.90;;;8.53;70.52;100835.56;5011838;28;20132;-52
2021/05/08 02:20:40;;;;;;;0.20;0.00;;;9.10;99.90;;;8.38;73.66;100844.59;5028046;28;20068;-52
2021/05/08 02:23:10;;;;;;;0.00;0.00;;;9.10;99.90;;;8.11;73.68;100845.75;5028288;28;20113;-53
2021/05/08 02:25:36;;;;;;;0.10;0.00;;;8.80;99.90;;;7.97;74.22;100836.47;5028749;28;20046;-50
2021/05/08 02:28:03;;;;;;;0.98;0.00;;;8.70;99.90;;;7.94;74.37;100843.66;5012064;28;20040;-53
2021/05/08 02:30:36;;;;;;;0.90;0.10;;;8.60;99.90;;;7.94;74.69;100854.06;5009903;28;20207;-53
2021/05/08 02:33:03;;;;;;;0.08;0.00;;;8.50;99.90;;;7.89;74.75;100851.81;5029913;28;20452;-53
2021/05/08 02:35:29;;;;;;;1.70;0.00;;;8.50;99.90;;;7.82;74.85;100845.44;5028502;28;20115;-48
2021/05/08 02:37:57;;;;;;;0.00;0.00;;;8.50;99.90;;;7.68;76.21;100847.41;5028043;28;20493;-47
2021/05/08 02:40:27;;;;;;;0.40;0.00;;;8.40;99.90;;;7.61;76.23;100842.69;5027330;28;20299;-47
2021/05/08 02:42:54;;;;;;;0.22;0.00;;;8.30;99.90;;;7.57;76.68;100850.81;5029360;28;20465;-52
2021/05/08 02:45:24;;;;;;;1.17;0.00;;;8.20;99.90;;;7.41;78.05;100863.31;5009921;28;20033;-52
2021/05/08 02:47:51;;;;;;;2.92;0.00;;;8.10;99.90;;;7.62;76.34;100859.91;5029394;28;20173;-51
2021/05/08 02:50:23;;;;;;;1.45;0.00;;;8.20;99.90;;;7.79;75.21;100853.44;5028594;28;20033;-51
2021/05/08 02:52:50;;;;;;;0.55;0.45;;;8.30;99.90;;;7.80;75.15;100862.06;5140920;22;21094;-53
2021/05/08 02:55:17;;;;;;;0.30;0.08;;;8.40;99.90;;;7.60;76.29;100861.78;4968171;28;20053;-53
2021/05/08 02:57:43;;;;;;;0.73;0.08;;;8.30;99.90;;;7.40;77.38;100861.66;4969125;28;21028;-48
2021/05/08 03:00:15;;;;;;;1.55;0.00;;;8.10;99.90;;;7.38;77.79;100866.13;4969054;28;20039;-51
2021/05/08 03:02:47;;;;;;;0.30;0.00;;;8.00;99.90;;;7.65;76.42;100869.22;4968448;28;20050;-53
2021/05/08 03:05:14;;;;;;;0.20;0.00;;;8.10;99.90;;;7.44;76.90;100870.84;4967426;28;20572;-52
2021/05/08 03:07:40;;;;;;;1.20;0.00;;;8.10;99.90;;;7.24;78.64;100874.91;4950157;28;20490;-48
2021/05/08 03:10:08;;;;;;;0.20;0.08;;;7.90;99.90;;;7.14;79.41;100889.47;4968330;28;20447;-52
2021/05/08 03:12:34;;;;;;;0.20;0.00;;;7.80;99.90;;;6.99;79.90;100881.91;4967105;28;20498;-52
2021/05/08 03:15:00;;;;;;;1.35;0.00;;;7.70;99.90;;;6.95;80.22;100890.00;4970196;28;20502;-51
2021/05/08 03:17:27;;;;;;;1.20;1.10;;;7.60;99.90;;;7.07;79.51;100883.13;4968585;28;20031;-47
2021/05/08 03:19:52;;;;;;;1.17;0.00;;;7.60;99.90;;;7.30;78.04;100879.66;4968782;28;20392;-48
2021/05/08 03:22:18;;;;;;;0.43;0.00;;;7.80;99.90;;;7.36;77.57;100889.56;4968951;28;20043;-47
2021/05/08 03:24:47;;;;;;;0.68;0.00;;;7.90;99.90;;;7.25;77.73;100887.75;4969006;28;20031;-49
2021/05/08 03:27:13;;;;;;;1.85;0.30;;;7.90;99.90;;;7.12;78.88;100892.19;4968242;28;20549;-49
2021/05/08 03:29:46;;;;;;;2.60;0.57;;;7.80;99.90;;;7.05;79.47;100896.19;4968273;28;20047;-50
2021/05/08 03:32:12;;;;;;;0.35;0.10;;;7.70;99.90;;;6.92;80.19;100895.41;4969514;28;20446;-53
2021/05/08 03:34:38;;;;;;;0.20;0.00;;;7.60;99.90;;;6.89;79.97;100911.16;4967953;28;20085;-49
2021/05/08 03:37:07;;;;;;;0.55;0.45;;;7.50;99.90;;;6.86;80.33;100899.25;4968293;28;20382;-49
2021/05/08 03:39:36;;;;;;;3.72;0.00;;;7.50;99.90;;;6.88;80.70;100907.75;4968169;28;20034;-49
2021/05/08 03:42:01;;;;;;;0.73;0.10;;;7.50;99.90;;;6.86;80.81;100912.22;4968537;28;20062;-51
2021/05/08 03:44:27;;;;;;;2.53;1.90;;;7.50;99.90;;;6.91;80.57;100911.88;4968809;28;20171;-52
2021/05/08 03:46:53;;;;;;;1.10;0.80;;;7.50;99.90;;;6.98;79.66;100921.72;4969068;28;20038;-50
2021/05/08 03:49:19;;;;;;;0.68;0.30;;;7.60;99.90;;;7.15;78.35;100917.03;4969096;28;20351;-49
2021/05/08 03:51:45;;;;;;;9.57;6.97;;;7.70;99.90;;;7.47;76.49;100922.47;4966895;28;20076;-50
2021/05/08 03:54:12;;;;;;;3.25;1.77;;;7.90;99.90;;;7.58;75.80;100922.50;4968212;28;20046;-52
2021/05/08 03:56:38;;;;;;;0.75;0.30;;;8.10;99.90;;;7.63;75.38;100917.78;4950411;28;20039;-52
2021/05/08 03:59:04;;;;;;;0.90;0.30;;;8.20;99.90;;;7.47;76.37;100938.03;4968095;28;20062;-48
2021/05/08 04:01:30;;;;;;;1.20;0.38;;;8.10;99.90;;;7.34;77.28;100935.50;4968140;28;20039;-49
2021/05/08 04:03:56;;;;;;;0.75;0.28;;;8.00;99.90;;;7.31;77.81;100927.97;4950438;28;20045;-48
2021/05/08 04:06:22;;;;;;;0.85;0.10;;;8.00;99.90;;;7.25;79.03;100924.03;4968351;28;20061;-52
2021/05/08 04:08:48;;;;;;;2.70;0.30;;;7.90;99.90;;;7.24;78.82;100931.94;4968770;28;20442;-50
2021/05/08 04:11:14;;;;;;;0.60;0.30;;;7.90;99.90;;;7.34;78.59;100935.50;4964189;28;20042;-47
2021/05/08 04:13:40;;;;;;;0.50;0.20;;;8.00;99.90;;;7.35;78.68;100933.75;4968956;28;20085;-52
2021/05/08 04:16:06;;;;;;;3.42;0.40;;;8.00;99.90;;;7.39;78.62;100938.59;4949805;28;20380;-51
2021/05/08 04:18:35;;;;;;;3.28;0.60;;;8.00;99.90;;;8.11;77.47;100944.38;4967441;28;20053;-52
2021/05/08 04:21:01;;;;;;;0.95;0.30;;;8.50;99.90;;;10.34;71.66;100941.94;4964526;28;20042;-48
2021/05/08 04:23:27;;;;;;;0.20;0.10;;;11.10;99.90;;;12.48;65.46;100940.72;4969009;28;20442;-50
2021/05/08 04:25:52;;;;;;;1.38;0.13;;;14.00;99.90;;;13.78;61.12;100936.69;4968253;28;20030;-49
2021/05/08 04:28:18;;;;;;;0.60;0.10;;;16.10;93.00;;;14.82;58.46;100950.47;4967223;28;20042;-50
2021/05/08 04:30:44;;;;;;;0.40;0.10;;;17.40;82.60;;;15.69;55.75;100943.81;4967998;28;20073;-52
2021/05/08 04:33:13;;;;;;;0.55;0.10;;;18.60;75.00;;;16.74;53.20;100950.56;4968790;28;20045;-53
2021/05/08 04:35:39;;;;;;;1.60;0.10;;;19.70;68.80;;;17.37;51.92;100957.41;4967590;28;20039;-52
2021/05/08 04:38:05;;;;;;;0.25;0.03;;;20.70;64.20;;;17.71;50.93;100962.22;4967346;28;20042;-49
2021/05/08 04:40:37;;;;;;;0.50;0.00;;;21.30;61.30;;;18.14;49.54;100958.00;4969419;28;20085;-51
2021/05/08 04:43:02;;;;;;;2.10;0.10;;;21.90;57.70;;;18.70;48.36;100953.06;4969916;28;20036;-52
2021/05/08 04:45:31;;;;;;;0.15;0.10;;;22.50;56.60;;;19.29;46.30;100952.84;4971679;28;20042;-50
2021/05/08 04:48:00;;;;;;;1.13;0.25;;;23.30;53.80;;;19.55;45.35;100970.78;4971352;28;20042;-52
2021/05/08 04:50:27;;;;;;;0.20;0.10;;;23.70;51.80;;;19.71;44.36;100972.31;4970271;28;20155;-52
2021/05/08 04:52:56;;;;;;;1.65;0.00;;;23.90;51.20;;;20.56;41.08;100972.03;4971186;28;20054;-52
2021/05/08 04:55:22;;;;;;;1.05;0.03;;;24.40;48.30;;;20.49;40.58;100964.06;4953620;28;20122;-53
2021/05/08 04:57:49;;;;;;;2.25;0.10;;;24.60;47.50;;;20.91;39.69;100974.59;4970975;28;20097;-54
2021/05/08 05:00:18;;;;;;;1.77;0.03;;;25.20;45.80;;;21.48;38.92;100966.97;4969951;28;20046;-51
2021/05/08 05:02:45;;;;;;;0.38;0.08;;;25.90;45.10;;;22.10;38.39;100970.19;4972365;28;20045;-50
2021/05/08 05:05:12;;;;;;;0.10;0.00;;;26.30;44.70;;;21.84;37.98;100973.66;4971261;28;20039;-54
2021/05/08 05:07:43;;;;;;;0.20;0.00;;;26.50;43.20;;;21.94;37.33;100971.41;4970845;28;20122;-50
2021/05/08 05:10:10;;;;;;;0.73;0.10;;;26.60;43.10;;;21.50;38.49;100967.56;4970734;28;20513;-47
2021/05/08 05:12:36;;;;;;;0.10;0.00;;;26.10;43.50;;;21.49;38.19;100976.53;4971556;28;20069;-47
2021/05/08 05:15:02;;;;;;;1.35;0.00;;;25.80;43.60;;;21.60;37.95;100976.94;4972346;28;20410;-52
2021/05/08 05:17:34;;;;;;;0.10;0.00;;;25.60;44.10;;;22.01;36.85;100971.41;4971779;28;20030;-53
2021/05/08 05:20:05;;;;;;;3.30;0.00;;;26.30;42.60;;;22.30;36.59;100976.25;4972592;28;20425;-52
2021/05/08 05:22:31;;;;;;;0.45;0.05;;;26.60;42.00;;;22.65;36.08;100984.72;4968478;28;20065;-50
2021/05/08 05:24:57;;;;;;;0.60;0.00;;;27.10;42.00;;;23.42;34.64;100991.63;4971994;28;20070;-52
2021/05/08 05:27:23;;;;;;;0.43;0.10;;;28.00;40.60;;;23.62;34.66;100993.34;4969800;28;20042;-52
2021/05/08 05:29:49;;;;;;;0.65;0.10;;;28.30;40.70;;;23.50;34.60;100991.34;4972134;28;20375;-49
2021/05/08 05:32:14;;;;;;;0.47;0.10;;;28.40;40.30;;;23.59;34.41;100997.25;4970313;28;20080;-51
2021/05/08 05:34:40;;;;;;;0.63;0.00;;;28.70;39.60;;;23.81;34.20;100995.00;4972111;28;20427;-50
2021/05/08 05:37:06;;;;;;;2.00;0.10;;;29.00;39.30;;;23.88;34.05;100997.59;4968878;28;20508;-50
2021/05/08 05:39:32;;;;;;;0.90;0.05;;;29.20;39.00;;;23.73;33.23;101004.06;4970512;28;20079;-51
2021/05/08 05:41:58;;;;;;;0.20;0.00;;;29.30;37.80;;;24.03;33.02;101006.88;4973109;28;20046;-50
2021/05/08 05:44:24;;;;;;;0.25;0.05;;;29.10;38.60;;;24.11;32.92;101017.22;4991246;28;20034;-54
2021/05/08 05:46:53;;;;;;;0.10;0.08;;;29.50;38.20;;;24.41;32.52;101016.53;4971647;28;20373;-51
2021/05/08 05:49:19;;;;;;;0.30;0.05;;;30.00;37.70;;;24.60;32.73;101023.47;4971644;28;20031;-53
2021/05/08 05:51:45;;;;;;;0.65;0.00;;;30.20;37.70;;;24.78;32.06;101020.78;4971064;28;20065;-53
2021/05/08 05:54:11;;;;;;;1.17;0.00;;;30.30;37.20;;;25.01;31.68;101029.97;4971387;28;20058;-56
2021/05/08 05:56:37;;;;;;;0.55;0.00;;;30.50;37.50;;;24.99;31.37;101034.72;4971430;28;20034;-54
2021/05/08 05:59:03;;;;;;;0.85;0.00;;;30.40;36.70;;;24.69;31.81;101034.63;4971574;28;20035;-52
2021/05/08 06:01:29;;;;;;;0.22;0.00;;;30.40;36.50;;;24.88;31.35;101038.09;4971772;28;20431;-52
2021/05/08 06:03:55;;;;;;;0.00;0.00;;;30.60;36.10;;;25.12;30.78;101045.97;4971198;28;20497;-52
2021/05/08 06:06:21;;;;;;;1.20;0.00;;;30.80;35.90;;;24.37;31.19;101053.44;4971043;28;20057;-52
2021/05/08 06:08:47;;;;;;;0.85;0.00;;;30.40;35.60;;;24.93;30.14;101044.38;4971159;28;20035;-46
2021/05/08 06:11:12;;;;;;;3.40;0.00;;;30.60;35.40;;;25.23;29.56;101055.06;4971259;28;20078;-47
2021/05/08 06:13:38;;;;;;;0.00;0.00;;;31.10;35.00;;;25.36;29.61;101057.56;4971077;28;20034;-46
2021/05/08 06:16:06;;;;;;;0.10;0.00;;;31.30;34.70;;;25.24;29.85;101054.03;4971343;28;20045;-48
2021/05/08 06:18:34;;;;;;;0.10;0.00;;;31.10;34.70;;;25.56;29.47;101054.56;4971208;28;20086;-54
2021/05/08 06:21:01;;;;;;;0.10;0.00;;;31.10;34.60;;;25.53;29.65;101060.38;4971112;28;20043;-53
2021/05/08 06:23:27;;;;;;;0.10;0.00;;;31.40;35.10;;;25.84;29.21;101059.28;4971013;28;20114;-53
2021/05/08 06:25:53;;;;;;;1.20;0.00;;;31.70;34.50;;;25.24;29.21;101066.56;4971188;28;20390;-53
2021/05/08 06:28:19;;;;;;;0.10;0.00;;;31.40;33.80;;;24.97;30.09;101066.09;4970989;28;20027;-54
2021/05/08 06:30:45;;;;;;;0.08;0.00;;;30.90;35.00;;;24.10;31.72;101068.81;4970862;28;20062;-52
2021/05/08 06:33:12;;;;;;;0.30;0.00;;;29.70;36.20;;;24.48;30.65;101071.38;4970572;28;20062;-54
2021/05/08 06:35:38;;;;;;;0.10;0.00;;;30.00;35.30;;;24.27;31.64;101060.31;4953299;28;20085;-53
2021/05/08 06:38:05;;;;;;;0.45;0.00;;;29.80;35.40;;;23.76;31.24;101064.81;4970721;28;20537;-54
2021/05/08 06:40:31;;;;;;;2.00;0.00;;;29.30;35.30;;;23.89;31.35;101063.09;4970771;28;20074;-54
2021/05/08 06:42:57;;;;;;;0.40;0.00;;;28.90;36.50;;;23.70;31.64;101070.19;4970744;28;20078;-54
2021/05/08 06:45:23;;;;;;;0.10;0.00;;;28.70;36.90;;;24.05;31.06;101079.34;4970708;28;20442;-54
2021/05/08 06:47:56;;;;;;;0.15;0.00;;;29.10;36.10;;;24.48;30.74;101073.22;4953029;28;20046;-54
2021/05/08 06:50:21;;;;;;;0.10;0.00;;;29.90;35.40;;;24.61;29.83;101074.91;4953979;28;20039;-50
2021/05/08 06:52:47;;;;;;;1.77;0.00;;;30.30;34.60;;;24.54;30.39;101069.66;4970314;28;20055;-53
2021/05/08 06:55:13;;;;;;;0.32;0.10;;;30.20;35.00;;;23.43;31.43;101080.19;4970662;28;20031;-54
2021/05/08 06:57:39;;;;;;;0.70;0.00;;;28.60;36.00;;;23.05;32.04;101074.88;4970179;28;20034;-52
2021/05/08 07:00:06;;;;;;;0.40;0.10;;;27.80;37.20;;;22.89;32.23;101075.34;4970384;28;20039;-52
2021/05/08 07:02:32;;;;;;;0.45;0.00;;;27.60;37.80;;;23.11;31.98;101074.84;4969423;28;20174;-51
2021/05/08 07:04:58;;;;;;;0.38;0.05;;;27.80;37.20;;;23.13;31.21;101074.63;4970192;28;20038;-54
2021/05/08 07:07:24;;;;;;;0.00;0.00;;;27.80;36.80;;;23.08;31.09;101079.78;4970175;28;20038;-52
2021/05/08 07:09:50;;;;;;;0.30;0.00;;;28.00;36.40;;;22.45;31.36;101083.00;4970085;28;20030;-53
2021/05/08 07:12:16;;;;;;;0.35;0.08;;;27.20;36.30;;;22.18;32.23;101082.25;4969982;28;20066;-50
2021/05/08 07:14:42;;;;;;;0.40;0.00;;;26.50;37.50;;;22.27;32.06;101087.31;4970029;28;20031;-50
2021/05/08 07:17:08;;;;;;;0.30;0.00;;;26.20;37.50;;;22.24;32.04;101077.09;4970536;28;20034;-48
2021/05/08 07:19:34;;;;;;;0.13;0.00;;;25.80;38.20;;;21.91;32.45;101082.41;4969702;28;20129;-50
2021/05/08 07:22:01;;;;;;;0.68;0.00;;;24.90;39.30;;;21.15;33.91;101082.66;4970228;28;20030;-48
2021/05/08 07:24:28;;;;;;;1.40;0.00;;;23.50;41.80;;;20.47;35.30;101085.19;4969895;28;20521;-54
2021/05/08 07:26:54;;;;;;;2.55;0.10;;;22.40;44.10;;;20.00;36.12;101088.47;4969880;28;20065;-54
2021/05/08 07:29:20;;;;;;;1.13;0.20;;;21.60;45.60;;;19.71;36.90;101081.53;4969766;28;20046;-53
2021/05/08 07:31:46;;;;;;;0.38;0.10;;;21.10;47.00;;;19.58;37.39;101080.59;4969615;28;20035;-54
2021/05/08 07:34:12;;;;;;;0.80;0.00;;;20.70;47.70;;;19.18;37.27;101080.94;4969662;28;20050;-52
2021/05/08 07:36:38;;;;;;;0.10;0.00;;;20.30;47.50;;;19.04;37.14;101075.69;4969961;28;20031;-54
2021/05/08 07:39:05;;;;;;;0.40;0.00;;;20.10;47.80;;;19.35;36.16;101076.28;4969929;28;20035;-51
2021/05/08 07:41:31;;;;;;;0.30;0.10;;;20.30;47.50;;;19.30;36.73;101081.28;4969484;28;20129;-38
2021/05/08 07:43:57;;;;;;;1.50;0.10;;;20.30;47.60;;;19.31;37.60;101084.75;4969207;28;20089;-38
2021/05/08 07:46:23;;;;;;;1.40;0.10;;;20.30;48.40;;;19.42;37.36;101093.00;4969237;28;20577;-48
2021/05/08 07:48:49;;;;;;;0.65;0.10;;;20.30;48.70;;;19.59;37.54;101084.88;4969719;28;20097;-41
2021/05/08 07:51:15;;;;;;;10.35;0.20;;;20.40;48.90;;;19.68;37.66;101079.25;4969349;28;20379;-42
2021/05/08 07:53:42;;;;;;;0.20;0.00;;;20.40;49.40;;;19.67;37.18;101082.09;4968863;28;20059;-39
2021/05/08 07:56:08;;;;;;;1.15;0.00;;;20.50;48.70;;;19.60;37.43;101081.22;4969542;28;20399;-45
2021/05/08 07:58:34;;;;;;;0.43;0.10;;;20.40;48.60;;;19.66;37.39;101091.03;4969457;28;20027;-59
2021/05/08 08:01:00;;;;;;;0.15;0.00;;;20.40;48.90;;;19.64;37.71;101091.22;4969030;28;20759;-52
2021/05/08 08:03:26;;;;;;;2.53;0.00;;;20.50;49.40;;;19.33;37.78;101093.31;4969106;28;20039;-58
2021/05/08 08:05:52;;;;;;;0.40;0.00;;;20.30;49.00;;;19.37;38.12;101095.41;4951825;28;20074;-57
2021/05/08 08:08:18;;;;;;;1.90;0.38;;;20.10;49.60;;;19.58;38.45;101088.50;4969375;28;20542;-56
2021/05/08 08:10:44;;;;;;;0.10;0.00;;;20.20;50.50;;;19.80;37.67;101092.81;4968984;28;20033;-46
2021/05/08 08:13:09;;;;;;;0.35;0.10;;;20.30;49.80;;;19.72;37.18;101096.38;4969220;28;20122;-50
2021/05/08 08:15:35;;;;;;;0.20;0.00;;;20.40;49.20;;;19.60;37.45;101097.06;4968708;28;20560;-55
2021/05/08 08:18:01;;;;;;;3.90;0.10;;;20.30;49.30;;;19.42;37.62;101098.28;4969274;28;20042;-54
2021/05/08 08:20:27;;;;;;;0.52;0.20;;;20.20;49.90;;;19.43;38.43;101102.56;4969261;28;20034;-52
2021/05/08 08:22:53;;;;;;;0.65;0.10;;;20.00;50.30;;;19.87;37.63;101102.41;4968966;28;20126;-55
2021/05/08 08:25:19;;;;;;;0.20;0.00;;;20.30;50.30;;;20.08;37.08;101106.06;4969117;28;20190;-57
2021/05/08 08:27:45;;;;;;;1.83;0.17;;;20.60;49.60;;;19.95;37.55;101105.94;4969322;28;20374;-54
2021/05/08 08:30:12;;;;;;;3.35;0.10;;;20.50;49.90;;;19.76;37.42;101107.41;4968827;28;20422;-52
2021/05/08 08:32:39;;;;;;;11.98;0.22;;;20.40;49.50;;;19.55;37.06;101100.28;4968935;28;20118;-57
2021/05/08 08:35:10;;;;;;;1.98;0.10;;;20.30;48.90;;;19.04;37.64;101102.09;4968788;28;20110;-51
2021/05/08 08:37:36;;;;;;;1.65;0.00;;;19.80;49.50;;;19.30;37.73;101118.28;4968613;28;20102;-55
2021/05/08 08:40:04;;;;;;;3.83;0.10;;;19.70;50.30;;;19.67;36.88;101108.53;4968863;28;20035;-50
2021/05/08 08:42:30;;;;;;;0.20;0.05;;;20.00;50.00;;;19.80;36.76;101113.97;4968554;28;20113;-56
2021/05/08 08:44:59;;;;;;;2.85;0.20;;;20.10;49.80;;;19.52;37.29;101109.41;4947450;28;20501;-56
2021/05/08 08:47:31;;;;;;;0.32;0.00;;;20.00;49.80;;;19.71;36.67;101115.09;4967329;28;20047;-56
2021/05/08 08:50:07;;;;;;;1.65;0.10;;;20.10;49.30;;;19.72;35.45;101111.44;4969629;28;20046;-54
2021/05/08 08:52:33;;;;;;;2.15;0.08;;;20.10;48.70;;;19.80;36.03;101108.66;4968452;28;20486;-55
2021/05/08 08:55:00;;;;;;;3.42;0.10;;;20.20;48.80;;;19.97;35.93;101104.72;4968693;28;20035;-56
2021/05/08 08:57:34;;;;;;;1.85;0.10;;;20.30;49.00;;;19.71;36.34;101099.22;4968412;28;20061;-54
2021/05/08 09:00:01;;;;;;;0.40;0.10;;;20.20;48.90;;;19.91;36.36;101094.91;4968548;28;20041;-53
2021/05/08 09:02:28;;;;;;;2.92;0.75;;;20.30;49.30;;;19.82;36.63;101093.44;4968841;28;20113;-54
2021/05/08 09:04:57;;;;;;;0.88;0.10;;;20.20;49.30;;;19.82;36.53;101096.06;4967840;28;20038;-53
2021/05/08 09:07:28;;;;;;;0.25;0.08;;;20.30;49.20;;;19.76;36.39;101094.19;4968604;28;20067;-50
2021/05/08 09:09:54;;;;;;;5.63;0.20;;;20.20;49.10;;;19.80;36.26;101090.97;4968283;28;20089;-55
2021/05/08 09:12:26;;;;;;;4.75;0.10;;;20.20;49.00;;;19.85;35.66;101087.72;4968533;28;20030;-53
2021/05/08 09:14:54;;;;;;;1.02;0.65;;;20.30;48.40;;;19.60;35.84;101089.97;4968704;28;20102;-53
2021/05/08 09:17:25;;;;;;;0.95;0.00;;;20.10;48.30;;;19.92;35.20;101083.31;4968586;28;20037;-54
2021/05/08 09:20:03;;;;;;;1.80;0.10;;;20.20;48.40;;;19.79;34.45;101080.59;4951623;28;20030;-52
2021/05/08 09:22:30;;;;;;;0.43;0.10;;;20.20;47.70;;;19.99;35.21;101089.50;4969876;28;20042;-54
2021/05/08 09:25:03;;;;;;;0.30;0.00;;;20.20;48.30;;;20.03;34.67;101082.81;4988033;28;20054;-53
2021/05/08 09:27:45;;;;;;;0.10;0.00;;;20.20;47.90;;;20.29;34.08;101068.97;4983569;28;20045;-56
2021/05/08 09:30:20;;;;;;;0.90;0.10;;;20.40;48.10;;;20.33;34.23;101072.03;4971713;28;20475;-51
2021/05/08 09:32:58;;;;;;;0.38;0.10;;;20.60;47.80;;;20.48;34.04;101078.06;4984162;28;20034;-54
2021/05/08 09:35:35;;;;;;;1.40;0.10;;;20.70;47.30;;;20.14;33.60;101070.91;4988522;28;20152;-57
2021/05/08 09:38:15;;;;;;;1.13;0.10;;;20.60;47.10;;;20.36;33.56;101075.09;4991340;28;20533;-56
2021/05/08 09:40:48;;;;;;;0.35;0.00;;;20.60;47.00;;;20.44;33.31;101077.63;4991089;28;20498;-54
2021/05/08 09:43:17;;;;;;;0.00;0.00;;;20.70;46.50;;;20.54;33.25;101069.34;4991058;28;20034;-56
2021/05/08 09:45:47;;;;;;;0.32;0.10;;;20.80;46.70;;;20.53;33.00;101062.44;4991084;28;20034;-56
2021/05/08 09:48:31;;;;;;;0.20;0.00;;;20.90;46.10;;;20.37;32.54;101068.81;4973392;28;20129;-50
2021/05/08 09:51:22;;;;;;;0.10;0.10;;;20.80;46.60;;;20.57;32.61;101074.25;4991171;28;20038;-57
2021/05/08 09:54:03;;;;;;;0.30;0.00;;;20.80;46.10;;;20.86;32.10;101074.00;4990554;28;20062;-55
2021/05/08 09:56:45;;;;;;;1.00;0.00;;;21.00;45.60;;;20.47;32.38;101069.31;4990888;28;20064;-54
2021/05/08 09:59:38;;;;;;;0.70;0.00;;;20.80;45.60;;;19.98;31.96;101079.91;4990862;28;20246;-55
2021/05/08 10:02:04;;;;;;;0.50;0.17;;;20.50;44.70;;;20.48;32.25;101078.06;4990714;28;20031;-56
2021/05/08 10:04:46;;;;;;;0.10;0.00;;;20.60;45.80;;;20.29;31.98;101086.69;4990607;28;20053;-56
2021/05/08 10:07:21;;;;;;;0.35;0.00;;;20.60;44.80;;;20.34;31.64;101084.25;4990555;28;20096;-55
2021/05/08 10:09:50;;;;;;;1.75;0.03;;;20.60;44.80;;;20.31;32.22;101084.66;4990645;28;20494;-54
2021/05/08 10:12:18;;;;;;;1.27;0.05;;;20.60;45.20;;;20.69;32.10;101085.94;4990249;28;20085;-53
2021/05/08 10:14:54;;;;;;;1.02;0.10;;;20.70;45.60;;;20.84;32.10;101083.13;4990635;28;20030;-53
2021/05/08 10:17:30;;;;;;;0.20;0.10;;;20.90;45.70;;;20.95;30.97;101085.25;4990493;28;20041;-52
2021/05/08 10:20:08;;;;;;;1.95;0.10;;;21.20;44.20;;;20.76;30.55;101084.16;4990708;28;20042;-54